GCFV/FUE METAR and TAF weather

Enter ICAO airport designator
Station Type Date Time Source
GCFV METAR 2021/06/24 05:00 UTC NOAA

GCFV 240500Z 36009KT 9999 FEW025 19/14 Q1017


Station Type Date Time Source
GCFV Decoded METAR 2021/06/24 05:00 UTC NOAA

Fuerteventura / Aeropuerto, Spain (GCFV) 28-27N 013-52W 30M
Jun 24, 2021 - 01:00 AM EDT / 2021.06.24 0500 UTC
Wind: from the N (360 degrees) at 10 MPH (9 KT):0
Visibility: greater than 7 mile(s):0
Sky conditions: mostly clear
Temperature: 66 F (19 C)
Dew Point: 57 F (14 C)
Relative Humidity: 72%
Pressure (altimeter): 30.03 in. Hg (1017 hPa)
ob: GCFV 240500Z 36009KT 9999 FEW025 19/14 Q1017
cycle: 5

Station Type Date Time Source
GCFV TAF 2021/06/24 03:27 UTC NOAA

TAF TAF GCFV 240200Z 2403/2503 36011KT 9999 SCT030 TX24/2414Z TN20/2406Z

Example: see airport list